Time,TemperatureF,DewpointF,PressureIn,WindDirection,WindDirectionDegrees,WindSpeedMPH,WindSpeedGustMPH,Humidity,HourlyPrecipIn,Conditions,Clouds,dailyrainin,SoftwareType,DateUTC
2013-02-07 10:08:00,43.0,38.5,30.03,ENE,71,4.0,4.0,84,0.00,,,0.00,Wunderground v.1.15,2013-02-07 18:08:00,
2013-02-07 10:14:00,43.5,39.3,30.04,SSE,168,4.0,5.0,85,0.00,,,0.00,Wunderground v.1.15,2013-02-07 18:14:00,
2013-02-07 10:20:00,44.1,39.0,30.04,SE,129,3.0,3.0,82,0.00,,,0.00,Wunderground v.1.15,2013-02-07 18:20:00,
2013-02-07 10:25:00,44.3,39.2,30.04,SSW,198,3.0,7.0,82,0.00,,,0.00,Wunderground v.1.15,2013-02-07 18:25:00,
2013-02-07 10:31:00,44.9,38.5,30.04,ESE,123,3.0,5.0,78,0.00,,,0.00,Wunderground v.1.15,2013-02-07 18:31:00,
2013-02-07 10:36:00,45.0,38.9,30.04,SSW,202,3.0,5.0,79,0.00,,,0.00,Wunderground v.1.15,2013-02-07 18:36:00,
2013-02-07 10:42:00,45.0,38.2,30.05,SSW,207,3.0,6.0,77,0.00,,,0.00,Wunderground v.1.15,2013-02-07 18:42:00,
2013-02-07 10:47:00,44.7,38.6,30.05,SSW,200,2.0,6.0,79,0.00,,,0.00,Wunderground v.1.15,2013-02-07 18:47:00,
2013-02-07 10:52:00,45.1,39.0,30.05,ESE,123,2.0,2.0,79,0.00,,,0.00,Wunderground v.1.15,2013-02-07 18:52:00,
2013-02-07 10:57:00,45.0,38.6,30.05,SSE,150,1.0,4.0,78,0.00,,,0.00,Wunderground v.1.15,2013-02-07 18:57:00,
2013-02-07 11:03:00,44.8,38.0,30.05,SE,136,3.0,9.0,77,0.00,,,0.00,Wunderground v.1.15,2013-02-07 19:03:00,
2013-02-07 11:08:00,44.7,38.3,30.05,South,171,3.0,9.0,78,0.00,,,0.00,Wunderground v.1.15,2013-02-07 19:08:00,
2013-02-07 11:13:00,44.6,37.8,30.05,ENE,74,3.0,9.0,77,0.00,,,0.00,Wunderground v.1.15,2013-02-07 19:13:00,
2013-02-07 11:19:00,44.4,38.3,30.05,SSW,197,3.0,9.0,79,0.00,,,0.00,Wunderground v.1.15,2013-02-07 19:19:00,
2013-02-07 11:24:00,44.7,38.3,30.05,ESE,112,2.0,9.0,78,0.00,,,0.00,Wunderground v.1.15,2013-02-07 19:24:00,
2013-02-07 11:29:00,44.6,38.5,30.04,SSE,166,2.0,9.0,79,0.00,,,0.00,Wunderground v.1.15,2013-02-07 19:29:00,
2013-02-07 11:35:00,45.0,37.9,30.04,ESE,117,3.0,9.0,76,0.00,,,0.00,Wunderground v.1.15,2013-02-07 19:35:00,
2013-02-07 11:40:00,45.3,38.8,30.04,South,180,3.0,3.0,78,0.00,,,0.00,Wunderground v.1.15,2013-02-07 19:40:00,
2013-02-07 11:46:00,45.4,38.3,30.04,SSE,158,2.0,9.0,76,0.00,,,0.00,Wunderground v.1.15,2013-02-07 19:46:00,
2013-02-07 11:51:00,45.4,37.9,30.04,SSE,157,2.0,9.0,75,0.00,,,0.00,Wunderground v.1.15,2013-02-07 19:51:00,
2013-02-07 11:56:00,45.4,37.9,30.04,SE,129,2.0,9.0,75,0.00,,,0.00,Wunderground v.1.15,2013-02-07 19:56:00,
2013-02-07 12:02:00,45.0,37.9,30.04,SE,131,2.0,9.0,76,0.00,,,0.00,Wunderground v.1.15,2013-02-07 20:02:00,
2013-02-07 12:07:00,44.8,37.4,30.04,SSE,158,2.0,9.0,75,0.00,,,0.00,Wunderground v.1.15,2013-02-07 20:07:00,
2013-02-07 12:13:00,44.9,38.1,30.04,SE,129,2.0,3.0,77,0.00,,,0.00,Wunderground v.1.15,2013-02-07 20:13:00,
2013-02-07 12:18:00,45.1,38.3,30.03,SSE,157,2.0,3.0,77,0.00,,,0.00,Wunderground v.1.15,2013-02-07 20:18:00,
2013-02-07 12:24:00,45.4,37.6,30.03,SSE,165,2.0,5.0,74,0.00,,,0.00,Wunderground v.1.15,2013-02-07 20:24:00,
2013-02-07 12:29:00,45.4,37.9,30.03,SE,136,2.0,5.0,75,0.00,,,0.00,Wunderground v.1.15,2013-02-07 20:29:00,
2013-02-07 12:35:00,45.3,38.2,30.04,ESE,113,1.0,2.0,76,0.00,,,0.00,Wunderground v.1.15,2013-02-07 20:35:00,
2013-02-07 12:40:00,45.2,38.4,30.04,SE,142,1.0,1.0,77,0.00,,,0.00,Wunderground v.1.15,2013-02-07 20:40:00,
2013-02-07 12:45:00,45.2,38.4,30.03,East,94,2.0,5.0,77,0.00,,,0.00,Wunderground v.1.15,2013-02-07 20:45:00,
2013-02-07 12:51:00,45.7,38.9,30.03,East,98,3.0,6.0,77,0.00,,,0.00,Wunderground v.1.15,2013-02-07 20:51:00,
2013-02-07 12:56:00,46.1,39.0,30.03,East,101,4.0,8.0,76,0.00,,,0.00,Wunderground v.1.15,2013-02-07 20:56:00,
2013-02-07 13:02:00,46.4,38.6,30.03,East,82,4.0,9.0,74,0.00,,,0.00,Wunderground v.1.15,2013-02-07 21:02:00,
2013-02-07 13:07:00,46.6,37.7,30.03,ESE,115,4.0,9.0,71,0.00,,,0.00,Wunderground v.1.15,2013-02-07 21:07:00,
2013-02-07 13:12:00,46.4,37.5,30.03,ESE,113,5.0,9.0,71,0.00,,,0.00,Wunderground v.1.15,2013-02-07 21:12:00,
2013-02-07 13:18:00,46.6,37.3,30.02,East,92,5.0,9.0,70,0.00,,,0.00,Wunderground v.1.15,2013-02-07 21:18:00,
2013-02-07 13:23:00,46.8,38.6,30.02,ESE,111,3.0,9.0,73,0.00,,,0.00,Wunderground v.1.15,2013-02-07 21:23:00,
2013-02-07 13:28:00,47.0,38.4,30.02,SSE,161,3.0,9.0,72,0.00,,,0.00,Wunderground v.1.15,2013-02-07 21:28:00,
2013-02-07 13:33:00,47.2,38.3,30.02,SE,128,3.0,9.0,71,0.00,,,0.00,Wunderground v.1.15,2013-02-07 21:33:00,
2013-02-07 13:39:00,47.2,38.3,30.02,ESE,122,3.0,9.0,71,0.00,,,0.00,Wunderground v.1.15,2013-02-07 21:39:00,
2013-02-07 13:44:00,46.8,37.5,30.02,ESE,109,3.0,9.0,70,0.00,,,0.00,Wunderground v.1.15,2013-02-07 21:44:00,
2013-02-07 13:50:00,46.6,37.3,30.02,East,98,3.0,9.0,70,0.00,,,0.00,Wunderground v.1.15,2013-02-07 21:50:00,
2013-02-07 13:55:00,46.6,37.0,30.02,ESE,121,2.0,9.0,69,0.00,,,0.00,Wunderground v.1.15,2013-02-07 21:55:00,
2013-02-07 14:00:00,46.8,37.2,30.01,SSE,168,2.0,9.0,69,0.00,,,0.00,Wunderground v.1.15,2013-02-07 22:00:00,
2013-02-07 14:06:00,47.6,37.6,30.01,SE,126,2.0,9.0,68,0.00,,,0.00,Wunderground v.1.15,2013-02-07 22:06:00,
2013-02-07 14:11:00,48.1,38.0,30.01,SSW,209,2.0,9.0,68,0.00,,,0.00,Wunderground v.1.15,2013-02-07 22:11:00,
2013-02-07 14:17:00,48.8,37.6,30.01,SSW,198,3.0,9.0,65,0.00,,,0.00,Wunderground v.1.15,2013-02-07 22:17:00,
2013-02-07 14:22:00,49.3,38.8,30.01,SSE,167,3.0,9.0,67,0.00,,,0.00,Wunderground v.1.15,2013-02-07 22:22:00,
2013-02-07 14:27:00,49.3,36.4,30.01,ESE,114,3.0,9.0,61,0.00,,,0.00,Wunderground v.1.15,2013-02-07 22:27:00,
2013-02-07 14:33:00,49.0,36.9,30.01,SSW,204,3.0,9.0,63,0.00,,,0.00,Wunderground v.1.15,2013-02-07 22:33:00,
2013-02-07 14:38:00,49.2,35.9,30.01,SSE,165,4.0,9.0,60,0.00,,,0.00,Wunderground v.1.15,2013-02-07 22:38:00,
2013-02-07 14:44:00,48.8,36.4,30.01,SSW,202,4.0,9.0,62,0.00,,,0.00,Wunderground v.1.15,2013-02-07 22:44:00,
2013-02-07 14:49:00,48.8,37.2,30.02,ESE,122,3.0,9.0,64,0.00,,,0.00,Wunderground v.1.15,2013-02-07 22:49:00,
2013-02-07 14:54:00,48.8,36.4,30.02,SSE,151,2.0,9.0,62,0.00,,,0.00,Wunderground v.1.15,2013-02-07 22:54:00,
2013-02-07 14:59:00,48.5,36.1,30.02,SSE,149,2.0,9.0,62,0.00,,,0.00,Wunderground v.1.15,2013-02-07 22:59:00,
2013-02-07 15:05:00,47.9,35.1,30.02,South,175,3.0,9.0,61,0.00,,,0.00,Wunderground v.1.15,2013-02-07 23:05:00,
2013-02-07 15:10:00,47.5,34.7,30.02,SE,129,3.0,3.0,61,0.00,,,0.00,Wunderground v.1.15,2013-02-07 23:10:00,
2013-02-07 15:16:00,47.6,36.0,30.02,SE,136,2.0,9.0,64,0.00,,,0.00,Wunderground v.1.15,2013-02-07 23:16:00,
2013-02-07 15:21:00,48.0,36.4,30.02,ESE,109,2.0,6.0,64,0.00,,,0.00,Wunderground v.1.15,2013-02-07 23:21:00,
2013-02-07 15:26:00,48.2,35.8,30.02,SSE,150,2.0,9.0,62,0.00,,,0.00,Wunderground v.1.15,2013-02-07 23:26:00,
2013-02-07 15:32:00,48.3,36.3,30.02,SSE,155,3.0,9.0,63,0.00,,,0.00,Wunderground v.1.15,2013-02-07 23:32:00,
2013-02-07 15:37:00,48.3,35.5,30.03,South,178,2.0,9.0,61,0.00,,,0.00,Wunderground v.1.15,2013-02-07 23:37:00,
2013-02-07 15:42:00,48.1,35.3,30.02,SE,132,1.0,9.0,61,0.00,,,0.00,Wunderground v.1.15,2013-02-07 23:42:00,
2013-02-07 15:48:00,47.7,35.3,30.02,SSE,162,1.0,9.0,62,0.00,,,0.00,Wunderground v.1.15,2013-02-07 23:48:00,
2013-02-07 15:53:00,47.4,35.4,30.03,SSE,162,1.0,9.0,63,0.00,,,0.00,Wunderground v.1.15,2013-02-07 23:53:00,
2013-02-07 15:58:00,47.4,35.4,30.03,SSE,160,0.0,9.0,63,0.00,,,0.00,Wunderground v.1.15,2013-02-07 23:58:00,
2013-02-07 16:04:00,47.4,35.4,30.03,SSE,160,0.0,9.0,63,0.00,,,0.00,Wunderground v.1.15,2013-02-08 00:04:00,
2013-02-07 16:09:00,47.4,35.4,30.03,SSE,160,0.0,9.0,63,0.00,,,0.00,Wunderground v.1.15,2013-02-08 00:09:00,
2013-02-07 16:14:00,47.4,35.4,30.03,SSE,160,0.0,9.0,63,0.00,,,0.00,Wunderground v.1.15,2013-02-08 00:14:00,
2013-02-07 16:20:00,47.4,35.8,30.03,SSE,160,0.0,9.0,64,0.00,,,0.00,Wunderground v.1.15,2013-02-08 00:20:00,
2013-02-07 16:25:00,47.3,36.5,30.03,SSE,161,0.0,9.0,66,0.00,,,0.00,Wunderground v.1.15,2013-02-08 00:25:00,
2013-02-07 16:31:00,47.2,37.2,30.04,SSE,161,0.0,9.0,68,0.00,,,0.00,Wunderground v.1.15,2013-02-08 00:31:00,
2013-02-07 16:36:00,46.9,36.9,30.04,SSE,161,0.0,9.0,68,0.00,,,0.00,Wunderground v.1.15,2013-02-08 00:36:00,
2013-02-07 16:42:00,46.6,37.3,30.04,SSE,161,0.0,9.0,70,0.00,,,0.00,Wunderground v.1.15,2013-02-08 00:42:00,
2013-02-07 16:47:00,46.1,37.2,30.04,SSE,161,0.0,9.0,71,0.00,,,0.00,Wunderground v.1.15,2013-02-08 00:47:00,
2013-02-07 16:52:00,45.6,37.1,30.05,SSE,161,0.0,9.0,72,0.00,,,0.00,Wunderground v.1.15,2013-02-08 00:52:00,
2013-02-07 16:58:00,45.1,37.0,30.05,SSE,161,0.0,9.0,73,0.00,,,0.00,Wunderground v.1.15,2013-02-08 00:58:00,
2013-02-07 17:03:00,44.7,36.9,30.05,SSE,161,0.0,9.0,74,0.00,,,0.00,Wunderground v.1.15,2013-02-08 01:03:00,
2013-02-07 17:08:00,44.2,36.8,30.05,SSE,161,0.0,9.0,75,0.00,,,0.00,Wunderground v.1.15,2013-02-08 01:08:00,
2013-02-07 17:14:00,43.6,36.2,30.05,SSE,161,0.0,9.0,75,0.00,,,0.00,Wunderground v.1.15,2013-02-08 01:14:00,
2013-02-07 17:19:00,43.1,36.4,30.05,SSE,161,0.0,9.0,77,0.00,,,0.00,Wunderground v.1.15,2013-02-08 01:19:00,
2013-02-07 17:24:00,42.7,36.3,30.05,SSE,161,0.0,9.0,78,0.00,,,0.00,Wunderground v.1.15,2013-02-08 01:24:00,
2013-02-07 17:29:00,42.3,35.9,30.05,SSE,161,0.0,9.0,78,0.00,,,0.00,Wunderground v.1.15,2013-02-08 01:29:00,
2013-02-07 17:35:00,41.8,35.8,30.05,SSE,161,0.0,9.0,79,0.00,,,0.00,Wunderground v.1.15,2013-02-08 01:35:00,
2013-02-07 17:40:00,41.4,35.7,30.05,SSE,161,0.0,9.0,80,0.00,,,0.00,Wunderground v.1.15,2013-02-08 01:40:00,
2013-02-07 17:46:00,40.9,35.2,30.05,SSE,161,0.0,9.0,80,0.00,,,0.00,Wunderground v.1.15,2013-02-08 01:46:00,
2013-02-07 17:51:00,40.5,35.4,30.06,SSE,161,0.0,9.0,82,0.00,,,0.00,Wunderground v.1.15,2013-02-08 01:51:00,
2013-02-07 17:56:00,40.1,34.7,30.06,SSE,161,0.0,9.0,81,0.00,,,0.00,Wunderground v.1.15,2013-02-08 01:56:00,
2013-02-07 18:02:00,39.6,34.6,30.06,SSE,161,0.0,9.0,82,0.00,,,0.00,Wunderground v.1.15,2013-02-08 02:02:00,
2013-02-07 18:07:00,39.3,34.9,30.06,SSE,161,0.0,9.0,84,0.00,,,0.00,Wunderground v.1.15,2013-02-08 02:07:00,
2013-02-07 18:13:00,38.9,34.5,30.06,SSE,161,0.0,0.0,84,0.00,,,0.00,Wunderground v.1.15,2013-02-08 02:13:00,
2013-02-07 18:18:00,38.6,34.5,30.06,SSE,161,0.0,0.0,85,0.00,,,0.00,Wunderground v.1.15,2013-02-08 02:18:00,
2013-02-07 18:24:00,38.3,34.2,30.06,SSE,161,0.0,0.0,85,0.00,,,0.00,Wunderground v.1.15,2013-02-08 02:24:00,
2013-02-07 18:29:00,37.9,33.8,30.07,SSE,161,0.0,0.0,85,0.00,,,0.00,Wunderground v.1.15,2013-02-08 02:29:00,
2013-02-07 18:34:00,37.7,33.9,30.07,SSE,161,0.0,0.0,86,0.00,,,0.00,Wunderground v.1.15,2013-02-08 02:34:00,
2013-02-07 18:40:00,37.4,33.6,30.07,SSE,161,0.0,0.0,86,0.00,,,0.00,Wunderground v.1.15,2013-02-08 02:40:00,
2013-02-07 18:45:00,37.2,33.7,30.07,SSE,161,0.0,0.0,87,0.00,,,0.00,Wunderground v.1.15,2013-02-08 02:45:00,
2013-02-07 18:50:00,37.1,33.9,30.08,SSE,161,0.0,0.0,88,0.00,,,0.00,Wunderground v.1.15,2013-02-08 02:50:00,
2013-02-07 18:56:00,36.9,33.4,30.08,SSE,161,0.0,1.0,87,0.00,,,0.00,Wunderground v.1.15,2013-02-08 02:56:00,
2013-02-07 19:01:00,36.7,33.5,30.08,SSE,161,0.0,1.0,88,0.00,,,0.00,Wunderground v.1.15,2013-02-08 03:01:00,
2013-02-07 19:06:00,36.5,33.3,30.08,SSE,161,0.0,1.0,88,0.00,,,0.00,Wunderground v.1.15,2013-02-08 03:06:00,
2013-02-07 19:12:00,36.4,33.2,30.08,SSE,161,0.0,1.0,88,0.00,,,0.00,Wunderground v.1.15,2013-02-08 03:12:00,
2013-02-07 19:18:00,36.2,33.0,30.09,SSE,161,0.0,2.0,88,0.00,,,0.00,Wunderground v.1.15,2013-02-08 03:18:00,
2013-02-07 19:23:00,36.1,33.2,30.08,SSE,161,0.0,1.0,89,0.00,,,0.00,Wunderground v.1.15,2013-02-08 03:23:00,
2013-02-07 19:28:00,35.9,33.0,30.09,SSE,161,0.0,2.0,89,0.00,,,0.00,Wunderground v.1.15,2013-02-08 03:28:00,
2013-02-07 19:33:00,35.8,32.9,30.09,SSE,161,1.0,2.0,89,0.00,,,0.00,Wunderground v.1.15,2013-02-08 03:33:00,
2013-02-07 19:39:00,35.7,33.1,30.09,SSE,161,1.0,2.0,90,0.00,,,0.00,Wunderground v.1.15,2013-02-08 03:39:00,
2013-02-07 19:45:00,35.5,32.6,30.09,SSE,161,0.0,2.0,89,0.00,,,0.00,Wunderground v.1.15,2013-02-08 03:45:00,
2013-02-07 19:50:00,35.5,32.9,30.09,SSE,161,0.0,1.0,90,0.00,,,0.00,Wunderground v.1.15,2013-02-08 03:50:00,
2013-02-07 19:56:00,35.3,32.7,30.10,SSE,161,0.0,2.0,90,0.00,,,0.00,Wunderground v.1.15,2013-02-08 03:56:00,
2013-02-07 20:01:00,35.2,32.6,30.10,SSE,161,0.0,1.0,90,0.00,,,0.00,Wunderground v.1.15,2013-02-08 04:01:00,
2013-02-07 20:06:00,35.2,32.8,30.10,SSE,161,0.0,1.0,91,0.00,,,0.00,Wunderground v.1.15,2013-02-08 04:06:00,
2013-02-07 20:11:00,34.8,32.2,30.10,SSE,161,0.0,1.0,90,0.00,,,0.00,Wunderground v.1.15,2013-02-08 04:11:00,
2013-02-07 20:17:00,34.4,31.8,30.11,SSE,161,0.0,1.0,90,0.00,,,0.00,Wunderground v.1.15,2013-02-08 04:17:00,
2013-02-07 20:22:00,34.4,31.8,30.11,SSE,161,0.0,1.0,90,0.00,,,0.00,Wunderground v.1.15,2013-02-08 04:22:00,
2013-02-07 20:27:00,34.4,32.0,30.11,SSE,161,0.0,1.0,91,0.00,,,0.00,Wunderground v.1.15,2013-02-08 04:27:00,
2013-02-07 20:33:00,34.4,32.0,30.12,SSE,161,0.0,1.0,91,0.00,,,0.00,Wunderground v.1.15,2013-02-08 04:33:00,
2013-02-07 20:38:00,34.3,31.9,30.12,SSE,161,0.0,1.0,91,0.00,,,0.00,Wunderground v.1.15,2013-02-08 04:38:00,
2013-02-07 20:43:00,34.1,31.7,30.12,SSE,161,0.0,1.0,91,0.00,,,0.00,Wunderground v.1.15,2013-02-08 04:43:00,
2013-02-07 20:49:00,33.9,31.6,30.12,SSE,161,0.0,1.0,91,0.00,,,0.00,Wunderground v.1.15,2013-02-08 04:49:00,
2013-02-07 20:54:00,33.7,31.4,30.13,SSE,161,0.0,1.0,91,0.00,,,0.00,Wunderground v.1.15,2013-02-08 04:54:00,
2013-02-07 20:59:00,33.6,31.3,30.13,SSE,161,0.0,1.0,91,0.00,,,0.00,Wunderground v.1.15,2013-02-08 04:59:00,
2013-02-07 21:00:00,33.6,31.3,30.13,SSE,161,0.0,1.0,91,0.00,,,0.00,Wunderground v.1.15,2013-02-08 05:00:00,
2013-02-07 21:01:00,33.6,31.3,30.13,SSE,161,0.0,1.0,91,0.00,,,0.00,Wunderground v.1.15,2013-02-08 05:01:00,
2013-02-07 21:02:00,33.5,31.2,30.13,SSE,161,0.0,1.0,91,0.00,,,0.00,Wunderground v.1.15,2013-02-08 05:02:00,
2013-02-07 21:03:00,33.5,31.2,30.13,SSE,161,0.0,1.0,91,0.00,,,0.00,Wunderground v.1.15,2013-02-08 05:03:00,
2013-02-07 21:09:00,33.4,31.1,30.13,SSE,161,0.0,1.0,91,0.00,,,0.00,Wunderground v.1.15,2013-02-08 05:09:00,
2013-02-07 21:14:00,33.3,31.0,30.13,SSE,161,0.0,1.0,91,0.00,,,0.00,Wunderground v.1.15,2013-02-08 05:14:00,
2013-02-07 21:20:00,33.2,31.1,30.13,SSE,161,0.0,1.0,92,0.00,,,0.00,Wunderground v.1.15,2013-02-08 05:20:00,
2013-02-07 21:25:00,33.2,31.1,30.13,SSE,161,0.0,1.0,92,0.00,,,0.00,Wunderground v.1.15,2013-02-08 05:25:00,
2013-02-07 21:30:00,33.1,31.0,30.13,SSE,161,0.0,1.0,92,0.00,,,0.00,Wunderground v.1.15,2013-02-08 05:30:00,
2013-02-07 21:36:00,33.0,30.9,30.13,SSE,161,0.0,1.0,92,0.00,,,0.00,Wunderground v.1.15,2013-02-08 05:36:00,
2013-02-07 21:41:00,32.8,30.7,30.14,SSE,161,0.0,1.0,92,0.00,,,0.00,Wunderground v.1.15,2013-02-08 05:41:00,
2013-02-07 21:47:00,32.5,30.4,30.14,SSE,161,0.0,1.0,92,0.00,,,0.00,Wunderground v.1.15,2013-02-08 05:47:00,
2013-02-07 21:52:00,32.3,30.0,30.14,SSE,161,0.0,1.0,91,0.00,,,0.00,Wunderground v.1.15,2013-02-08 05:52:00,
2013-02-07 21:58:00,32.1,30.0,30.14,SSE,161,0.0,1.0,92,0.00,,,0.00,Wunderground v.1.15,2013-02-08 05:58:00,
2013-02-07 22:03:00,32.1,30.0,30.15,SSE,161,0.0,1.0,92,0.00,,,0.00,Wunderground v.1.15,2013-02-08 06:03:00,
2013-02-07 22:08:00,32.0,29.9,30.15,SSE,161,0.0,1.0,92,0.00,,,0.00,Wunderground v.1.15,2013-02-08 06:08:00,
2013-02-07 22:14:00,31.8,29.7,30.15,SSE,161,0.0,1.0,92,0.00,,,0.00,Wunderground v.1.15,2013-02-08 06:14:00,
2013-02-07 22:19:00,31.7,29.6,30.15,SSE,161,0.0,1.0,92,0.00,,,0.00,Wunderground v.1.15,2013-02-08 06:19:00,
2013-02-07 22:24:00,31.7,29.6,30.15,SSE,161,0.0,1.0,92,0.00,,,0.00,Wunderground v.1.15,2013-02-08 06:24:00,
2013-02-07 22:29:00,31.6,29.5,30.16,SSE,161,0.0,1.0,92,0.00,,,0.00,Wunderground v.1.15,2013-02-08 06:29:00,
2013-02-07 22:35:00,31.5,29.4,30.16,SSE,161,0.0,1.0,92,0.00,,,0.00,Wunderground v.1.15,2013-02-08 06:35:00,
2013-02-07 22:40:00,31.4,29.3,30.16,SSE,161,0.0,1.0,92,0.00,,,0.00,Wunderground v.1.15,2013-02-08 06:40:00,
2013-02-07 22:46:00,31.4,29.6,30.16,SSE,161,0.0,1.0,93,0.00,,,0.00,Wunderground v.1.15,2013-02-08 06:46:00,
2013-02-07 22:51:00,31.3,29.5,30.17,SSE,161,0.0,1.0,93,0.00,,,0.00,Wunderground v.1.15,2013-02-08 06:51:00,
2013-02-07 22:56:00,31.3,29.5,30.17,SSE,161,0.0,1.0,93,0.00,,,0.00,Wunderground v.1.15,2013-02-08 06:56:00,
2013-02-07 23:01:00,31.4,29.6,30.17,SSE,161,1.0,2.0,93,0.00,,,0.00,Wunderground v.1.15,2013-02-08 07:01:00,
2013-02-07 23:07:00,31.4,29.6,30.17,SSE,161,1.0,2.0,93,0.00,,,0.00,Wunderground v.1.15,2013-02-08 07:07:00,
2013-02-07 23:12:00,31.2,29.4,30.17,SSE,161,0.0,1.0,93,0.00,,,0.00,Wunderground v.1.15,2013-02-08 07:12:00,
2013-02-07 23:18:00,31.1,29.3,30.18,West,271,0.0,3.0,93,0.00,,,0.00,Wunderground v.1.15,2013-02-08 07:18:00,
2013-02-07 23:23:00,31.2,29.4,30.18,West,271,0.0,1.0,93,0.00,,,0.00,Wunderground v.1.15,2013-02-08 07:23:00,
2013-02-07 23:29:00,31.0,29.2,30.18,West,271,0.0,1.0,93,0.00,,,0.00,Wunderground v.1.15,2013-02-08 07:29:00,
2013-02-07 23:34:00,30.9,29.1,30.18,West,271,0.0,1.0,93,0.00,,,0.00,Wunderground v.1.15,2013-02-08 07:34:00,
2013-02-07 23:39:00,30.8,29.0,30.18,West,271,0.0,1.0,93,0.00,,,0.00,Wunderground v.1.15,2013-02-08 07:39:00,
2013-02-07 23:44:00,30.6,28.8,30.18,West,271,0.0,1.0,93,0.00,,,0.00,Wunderground v.1.15,2013-02-08 07:44:00,
2013-02-07 23:50:00,30.4,28.6,30.19,West,271,0.0,1.0,93,0.00,,,0.00,Wunderground v.1.15,2013-02-08 07:50:00,
2013-02-07 23:55:00,30.3,28.5,30.19,West,271,0.0,1.0,93,0.00,,,0.00,Wunderground v.1.15,2013-02-08 07:55:00,